Local area metar reports


Our local metar:
KGOO 210120Z AUTO 19003KT 10SM FEW035 11/04 A2994 RMK AO1

Decoded:

station                        KGOO
observed_date Tue, 21 May 2019 01:20:00 +0000
observed_age 19 min. ago
wind_speed 3
wind_direction 190
wind_direction_label S
visibility_report 10 miles
present_weather_report Dry
clouds_report A few at 3500 feet
cloud_height 3500
temperature_f 52
dew_point_f 39
humidity 62
barometer 29.94
remarks AO1

Auburn metar:
KAUN 210135Z AUTO 20007G13KT 10SM SCT046 SCT065 16/07 A2994 RMK A01

Decoded:

station                        KAUN
observed_date Tue, 21 May 2019 01:35:00 +0000
observed_age 4 min. ago
wind_speed 7
wind_gust_speed 13
wind_direction 200
wind_direction_label SSW
visibility_report 10 miles
present_weather_report Dry
clouds_report Scattered at 4600 feet; scattered at 6500 feet
cloud_height 4600
temperature_f 61
dew_point_f 45
humidity 55
barometer 29.94
remarks A01

Lincoln metar:
KLHM 210135Z AUTO 19013KT 10SM CLR 18/08 A2991 RMK AO1

Decoded:

station                        KLHM
observed_date Tue, 21 May 2019 01:35:00 +0000
observed_age 4 min. ago
wind_speed 13
wind_direction 190
wind_direction_label S
visibility_report 10 miles
present_weather_report Dry
clouds_report Clear skies
temperature_f 64
dew_point_f 46
humidity 52
barometer 29.91
remarks AO1